x

Buoy I01 - Eastern Maine Shelf (44034) Wave Buoy

12:04 - Sat 1st Oct 2016 All times are EDT. -4 hours from GMT.

  • Sig Wave height 2.6ft
  • Peak Period 8s
  • Wind
    9mph
  • Sea Temp 54°f
  • Aire Temp 54°f
  • Sea Pressure 1030.6mb
  • Buoy I01 - Eastern Maine Shelf
  • Buoy I01 - Eastern Maine Shelf

More Historic Weather Station data

Upgrade to MSW Pro to gain access to the past 30 days of data for over 8000 Wavebouys and Weather Stations around the globe.

Join Pro

Comparision Forecast

View Surf forecast
   
sáb 10/01 12:04 2.5ft 8s 9
mph
1030.6mb 54f 54f
vie 09/30 11:04 2.5ft 8s 4 7 mph 1030.9mb 54f 54f
10:04 3ft 8s 7
mph
1031.1mb 54f 54f
9:04 3ft 8s 4 7 mph 1031.2mb 54f 54f
8:04 3.5ft 11s 4
mph
1031.5mb 54f 54f
6:04 4ft 11s 7
mph
1031.8mb 54f 55f
5:04 3.5ft 11s 9
mph
1032mb 55f 55f
4:04 4.5ft 11s 7 9 mph 1032.5mb 54f 55f
3:04 3.5ft 11s 9 11 mph 1032.7mb 55f 54f
2:04 4.5ft 11s 11 13 mph 1032.9mb 54f 54f
1:04 3.5ft 8s 13 16 mph 1033.5mb 54f 54f
12:04 2.5ft 5s 11 13 mph 1034.2mb 54f 53f
11:04 2.5ft 5s 13
mph
1034.1mb 55f 53f
10:04 2.5ft 4s 11 13 mph 1034.5mb 55f 53f
9:04  -   -  16 18 mph 1034.2mb 55f 52f
8:04 2ft 5s 13 16 mph 1034.1mb 54f 52f
7:04  -   -  13 16 mph 1034.1mb 54f 53f
6:04 5ft 8s 13 16 mph 1034.1mb 54f 53f
5:04 2.5ft 5s 11 13 mph 1034mb 54f 53f
4:04  -   -  11 13 mph 1034.1mb 55f 53f
3:04 4.5ft 11s 13
mph
1034mb 55f 53f
2:04 4.5ft 11s 11 13 mph 1034.2mb 55f 53f
1:04 4.5ft 11s 9
mph
1034.3mb 55f 55f
12:04 4ft 11s 11 13 mph 1034mb 55f 55f
jue 09/29 11:04 3.5ft 11s 11 13 mph 1034.1mb 55f 55f
10:04 4ft 11s 13 16 mph 1034.2mb 55f 55f
9:04 4ft 11s 7 9 mph 1034mb 55f 55f
8:04 4.5ft 11s 9
mph
1033.8mb 54f 55f
7:04 4ft 11s 7
mph
1033.6mb 54f 55f
6:04 5ft 11s 7 9 mph 1033.3mb 55f 55f
5:04 5ft 11s 9 11 mph 1033mb 55f 56f
4:04  -   -  11 13 mph 1032.9mb 54f 55f
3:04 5ft 11s 11 13 mph 1032.6mb 55f 55f
2:04  -   -  11 13 mph 1032.8mb 55f 55f
1:04 5ft 11s 13 16 mph 1033mb 54f 55f
12:04 4ft 5s 16 20 mph 1033.2mb 54f 54f
11:04 4.5ft 5s 16 20 mph 1032.9mb 54f 53f
10:04 4ft 5s 16 20 mph 1032.7mb 54f 52f
9:04 4.5ft 5s 22 25 mph 1032mb 54f 51f
8:04 4.5ft 5s 20 25 mph 1031.7mb 54f 51f
7:04 5ft 5s 22 25 mph 1030.7mb 54f 50f
6:04 4.5ft 5s 22 29 mph 1030.2mb 54f 51f
5:04 5ft 5s 25 29 mph 1029.9mb 54f 51f
4:04 4.5ft 5s 22 27 mph 1029.9mb 54f 51f
3:04 5.5ft 6s 22 27 mph 1029.8mb 55f 51f
2:04 5ft 5s 20 25 mph 1029.7mb 55f 52f
1:04 5ft 5s 22 27 mph 1029.4mb 55f 53f
12:04 5ft 6s 22 27 mph 1029.4mb 55f 54f
mié 09/28 11:04 5ft 5s 22 25 mph 1029.3mb 55f 55f
10:04 5ft 6s 18 22 mph 1029mb 56f 55f
9:04 5ft 6s 20 25 mph 1028.5mb 56f 56f
8:04 4.5ft 6s 18 20 mph 1028.3mb 54f 56f
7:04 4.5ft 6s 16 20 mph 1027.7mb 54f 55f
6:04 5ft 6s 20 25 mph 1027.2mb 54f 56f
5:04 5ft 6s 18 22 mph 1026.8mb 54f 55f
4:04 4.5ft 5s 18 20 mph 1026.7mb 54f 56f
3:04 5ft 5s 22 27 mph 1026.4mb 55f 55f
2:04 5ft 5s 22 27 mph 1026.2mb 54f 55f
1:04 5ft 5s 20 25 mph 1025.8mb 55f 55f
12:04 5ft 6s 20 25 mph 1025.9mb 55f 54f
11:04 5ft 6s 20 25 mph 1025.8mb 54f 53f
10:04 5ft 8s 18 25 mph 1025.6mb 54f 53f
9:04 5ft 6s 20 22 mph 1025mb 54f 52f
8:04 5ft 6s 20 27 mph 1024.5mb 54f 51f
7:04 4.5ft 8s 20 27 mph 1023.8mb 54f 52f
6:04 5ft 8s 20 22 mph 1022.6mb 54f 52f
5:04 5ft 8s  -  mph - 54f -
4:04 4ft 5s 18 22 mph 1021.4mb 54f 53f
3:04 3.5ft 5s 18 22 mph 1020.9mb 54f 53f
2:04 4ft 6s 16 20 mph 1020.5mb 55f 54f
1:04 4ft 4s 18 22 mph 1020.1mb 55f 54f
12:04 3.5ft 6s 18 22 mph 1019.4mb 55f 54f
mar 09/27 11:04 4ft 6s 18 20 mph 1018.4mb 55f 55f
10:04 4.5ft 6s 20 25 mph 1017.5mb 55f 55f
9:04 4.5ft 6s 18 22 mph 1016.4mb 56f 55f
8:04 3.5ft 6s 20 22 mph 1015mb 56f 56f
7:04 2.5ft 5s 13 18 mph 1014.6mb 56f 56f
6:04 2.5ft 5s 11 13 mph 1014.2mb 56f 57f
5:04 2.5ft 6s 7 9 mph 1013.2mb 56f 57f
4:04 3ft 6s 7 9 mph 1012mb 56f 57f
3:04 3ft 6s 4
mph
1012mb 56f 57f
2:04 3.5ft 6s 4
mph
1011.8mb 56f 56f
1:04 4ft 6s 4
mph
1011.9mb 55f 56f
12:04 3.5ft 6s 2
mph
1012.5mb 55f 56f
11:04 4ft 6s 4
mph
1012.7mb 55f 56f
10:04 3.5ft 5s 7
mph
1012.8mb 55f 56f
9:04 3.5ft 5s 11 13 mph 1013mb 55f 56f
8:04 3.5ft 5s 18 22 mph 1012.8mb 55f 57f
7:04 3.5ft 5s 16 18 mph 1012.7mb 55f 57f
6:04 2.5ft 4s 16 18 mph 1012.9mb 55f 57f